Flight Track Log - Related Links

Times and Time Zones

All times are in EDT time to prevent confusion due to time zone crossing. See the OPT429 flight status page for this flight to view local times or setup timezone preferences in your user account.

Time Position Orientation Groundspeed Altitude Reporting Facility
EDT Latitude Longitude Course Direction KTS MPH feet Rate Location/Type
Tue 05:11:27 PM 43.5822 -110.7517 85° East 153 176 7,600  Level Salt Lake Center
Tue 05:12:28 PM 43.5350 -110.7850 207° Southwest 185 213 10,500 2,732 Climbing Salt Lake Center
Tue 05:13:30 PM 43.4650 -110.7975 187° South 218 251 13,200 2,226 Climbing Salt Lake Center
Tue 05:14:00 PM 43.2434 -110.6898 77° East  Level FlightAware Approximate
Tue 05:14:32 PM 43.4503 -110.7069 103° East 262 302 15,100  Level Salt Lake Center
Tue 05:15:00 PM 43.2589 -110.5442 83° East  Level FlightAware Approximate
Tue 05:15:33 PM 43.4642 -110.5869 81° East 327 376 16,200  Level Salt Lake Center
Tue 05:16:00 PM 43.2698 -110.3976 85° East  Level FlightAware Approximate
Tue 05:16:35 PM 43.4758 -110.4514 83° East 357 411 17,700  Level Salt Lake Center
Tue 05:17:37 PM 43.4869 -110.3111 84° East 367 422 19,500 2,146 Climbing Salt Lake Center
Tue 05:18:38 PM 43.4978 -110.1592 84° East 360 414 22,100 2,049 Climbing Salt Lake Center
Tue 05:19:40 PM 43.5069 -110.0242 85° East 364 419 23,700 1,597 Climbing Salt Lake Center
Tue 05:20:42 PM 43.5175 -109.8608 85° East 379 436 25,400 1,500 Climbing Salt Lake Center
Tue 05:21:44 PM 43.5275 -109.7222 84° East 382 440 26,800 1,366 Climbing Salt Lake Center
Tue 05:22:45 PM 43.5378 -109.5669 85° East 398 458 28,200 1,415 Climbing Salt Lake Center
Tue 05:23:47 PM 43.5489 -109.4058 85° East 414 476 29,700 1,645 Climbing Salt Lake Center
Tue 05:24:49 PM 43.5606 -109.2114 85° East 421 484 31,600 1,645 Climbing Salt Lake Center
Tue 05:25:51 PM 43.5714 -109.0464 85° East 428 493 33,100 1,463 Climbing Salt Lake Center
Tue 05:26:52 PM 43.5803 -108.8803 86° East 429 494 34,600 1,171 Climbing Salt Lake Center
Tue 05:27:54 PM 43.5903 -108.7100 85° East 440 506 35,500 1,016 Climbing Salt Lake Center
Tue 05:28:56 PM 43.6000 -108.5375 85° East 446 513 36,700 1,355 Climbing Salt Lake Center
Tue 05:29:58 PM 43.6086 -108.3644 86° East 452 520 38,300 1,707 Climbing Salt Lake Center
Tue 05:30:59 PM 43.6186 -108.1647 86° East 446 513 40,200 1,210 Climbing Salt Lake Center
Tue 05:32:02 PM 43.6267 -108.0056 86° East 430 495 40,800 387 Climbing Salt Lake Center
Tue 05:33:03 PM 43.6353 -107.8417 86° East 429 494 41,000 98 Climbing Salt Lake Center
Tue 05:34:05 PM 43.6433 -107.6714 86° East 438 504 41,000  Level Salt Lake Center
Tue 05:35:07 PM 43.6514 -107.4953 86° East 452 520 41,000  Level Salt Lake Center
Tue 05:36:08 PM 43.6592 -107.3272 86° East 451 519 41,000  Level Salt Lake Center
Tue 05:37:10 PM 43.6683 -107.1253 86° East 446 513 41,000  Level Salt Lake Center
Tue 05:38:12 PM 43.6747 -106.9553 87° East 446 513 41,000  Level Salt Lake Center
Tue 05:39:14 PM 43.6828 -106.7853 86° East 446 513 41,000  Level Salt Lake Center
Tue 05:40:13 PM 43.6897 -106.6169 87° East 445 512 41,000  Level Denver Center
Tue 05:41:15 PM 43.6961 -106.4489 87° East 444 511 41,000  Level Denver Center
Tue 05:42:17 PM 43.7017 -106.2803 87° East 444 511 41,000  Level Denver Center
Tue 05:43:19 PM 43.7086 -106.1106 87° East 444 511 41,000  Level Denver Center
Tue 05:44:21 PM 43.7153 -105.9075 87° East 444 511 41,000  Level Denver Center
Tue 05:45:23 PM 43.7206 -105.7397 87° East 444 511 41,000  Level Denver Center
Tue 05:46:25 PM 43.7253 -105.5717 88° East 443 510 41,000  Level Denver Center
Tue 05:47:27 PM 43.7300 -105.4025 88° East 443 510 41,000  Level Denver Center
Tue 05:48:29 PM 43.7350 -105.2339 88° East 443 510 41,000  Level Denver Center
Tue 05:49:31 PM 43.7403 -105.0536 88° East 443 510 41,000  Level Denver Center
Tue 05:50:32 PM 43.7439 -104.8611 88° East 443 510 41,000  Level Denver Center
Tue 05:51:34 PM 43.7472 -104.6914 88° East 443 510 41,000  Level Denver Center
Tue 05:52:36 PM 43.7517 -104.5217 88° East 443 510 41,000  Level Denver Center
Tue 05:53:38 PM 43.7561 -104.3511 88° East 443 510 41,000  Level Denver Center
Tue 05:54:40 PM 43.7572 -104.1858 89° East 440 506 41,000  Level Denver Center
Tue 05:55:42 PM 43.7600 -104.0194 89° East 439 505 41,000  Level Denver Center
Tue 05:56:44 PM 43.7619 -103.8406 89° East 437 503 41,000  Level Denver Center
Tue 05:57:46 PM 43.7658 -103.6742 88° East 437 503 41,000  Level Denver Center
Tue 05:58:48 PM 43.7669 -103.5083 89° East 436 502 41,000  Level Denver Center
Tue 05:59:50 PM 43.7669 -103.3086 90° East 436 502 41,000  Level Denver Center
Tue 06:00:52 PM 43.7664 -103.1433 90° East 436 502 41,000  Level Denver Center
Tue 06:01:54 PM 43.7681 -102.9797 89° East 435 501 41,000  Level Denver Center
Tue 06:02:56 PM 43.7694 -102.8153 89° East 433 498 41,000  Level Denver Center
Tue 06:03:58 PM 43.7697 -102.6514 90° East 433 498 41,000  Level Denver Center
Tue 06:04:59 PM 43.7706 -102.4903 90° East 428 493 41,000  Level Denver Center
Tue 06:06:01 PM 43.7750 -102.2975 88° East 424 488 41,000  Level Denver Center
Tue 06:07:03 PM 43.7761 -102.1342 89° East 425 489 41,000  Level Denver Center
Tue 06:08:05 PM 43.7761 -101.9692 90° East 425 489 41,000  Level Denver Center
Tue 06:09:07 PM 43.7753 -101.8000 90° East 436 502 41,000  Level Denver Center
Tue 06:10:09 PM 43.7744 -101.6292 90° East 441 507 41,000  Level Denver Center
Tue 06:11:11 PM 43.7733 -101.4583 90° East 443 510 41,000  Level Denver Center
Tue 06:12:13 PM 43.7719 -101.2572 90° East 442 509 41,000  Level Denver Center
Tue 06:13:15 PM 43.7697 -101.0908 91° East 440 506 41,000  Level Denver Center
Tue 06:14:17 PM 43.7697 -100.9300 90° East 429 494 41,000  Level Denver Center
Tue 06:15:19 PM 43.7672 -100.7653 91° East 429 494 41,000  Level Denver Center
Tue 06:16:21 PM 43.7644 -100.6017 91° East 426 490 41,000  Level Denver Center
Tue 06:17:23 PM 43.7625 -100.4397 91° East 426 490 41,000  Level Denver Center
Tue 06:18:25 PM 43.7594 -100.2419 91° East 427 491 41,000  Level Denver Center
Tue 06:19:27 PM 43.7569 -100.0778 91° East 428 493 41,000  Level Denver Center
Tue 06:20:29 PM 43.7533 -99.9164 92° East 427 491 41,000  Level Denver Center
Tue 06:21:53 PM 43.7494 -99.6889 91° East 428 493 41,000  Level Minneapolis Center
Tue 06:22:55 PM 43.7453 -99.5269 92° East 428 493 41,000  Level Minneapolis Center
Tue 06:23:58 PM 43.7419 -99.3650 92° East 428 493 41,000  Level Minneapolis Center
Tue 06:25:00 PM 43.7361 -99.1725 92° East 423 487 41,000  Level Minneapolis Center
Tue 06:26:02 PM 43.7322 -99.0119 92° East 422 486 41,000  Level Minneapolis Center
Tue 06:27:04 PM 43.7275 -98.8506 92° East 422 486 41,000  Level Minneapolis Center
Tue 06:28:06 PM 43.7228 -98.6883 92° East 422 486 41,000  Level Minneapolis Center
Tue 06:29:08 PM 43.7183 -98.5175 92° East 422 486 41,000  Level Minneapolis Center
Tue 06:30:10 PM 43.7125 -98.3567 93° East 422 486 41,000  Level Minneapolis Center
Tue 06:31:12 PM 43.7069 -98.1950 93° East 422 486 41,000  Level Minneapolis Center
Tue 06:32:14 PM 43.7000 -98.0000 93° East 423 487 41,000  Level Minneapolis Center
Tue 06:33:16 PM 43.6939 -97.8358 93° East 424 488 41,000  Level Minneapolis Center
Tue 06:34:18 PM 43.6869 -97.6714 93° East 430 495 41,000  Level Minneapolis Center
Tue 06:35:20 PM 43.6806 -97.5053 93° East 431 496 41,000  Level Minneapolis Center
Tue 06:36:22 PM 43.6739 -97.3375 93° East 436 502 41,000  Level Minneapolis Center
Tue 06:37:25 PM 43.6658 -97.1358 93° East 438 504 41,000  Level Minneapolis Center
Tue 06:38:27 PM 43.6575 -96.9667 94° East 442 509 41,000  Level Minneapolis Center
Tue 06:39:29 PM 43.6500 -96.7994 93° East 442 509 41,000  Level Minneapolis Center
Tue 06:40:31 PM 43.6611 -96.6314 85° East 442 509 41,000  Level Minneapolis Center
Tue 06:41:33 PM 43.6739 -96.4664 84° East 442 509 41,000  Level Minneapolis Center
Tue 06:42:35 PM 43.6886 -96.2664 84° East 441 507 41,000  Level Minneapolis Center
Tue 06:43:37 PM 43.7008 -96.1006 84° East 441 507 41,000  Level Minneapolis Center
Tue 06:44:39 PM 43.7133 -95.9356 84° East 440 506 41,000 -48 Level Minneapolis Center
Tue 06:45:41 PM 43.7250 -95.7719 84° East 437 503 40,900 -720 Descending Minneapolis Center
Tue 06:46:44 PM 43.7358 -95.6042 85° East 437 503 39,500 -1,584 Descending Minneapolis Center
Tue 06:47:46 PM 43.7511 -95.4006 84° East 443 510 37,600 -1,694 Descending Minneapolis Center
Tue 06:48:48 PM 43.7625 -95.2356 84° East 441 507 36,000 -1,548 Descending Minneapolis Center
Tue 06:49:50 PM 43.7728 -95.0678 85° East 439 505 34,400 -1,548 Descending Minneapolis Center
Tue 06:50:52 PM 43.7828 -94.8981 85° East 441 507 32,800 -1,548 Descending Minneapolis Center
Tue 06:51:54 PM 43.7942 -94.7247 85° East 453 521 31,200 -1,694 Descending Minneapolis Center
Tue 06:52:56 PM 43.8069 -94.5186 85° East 452 520 29,300 -1,694 Descending Minneapolis Center
Tue 06:53:58 PM 43.8164 -94.3456 86° East 452 520 27,700 -2,226 Descending Minneapolis Center
Tue 06:55:00 PM 43.8258 -94.1644 86° East 452 520 24,700 -2,880 Descending Minneapolis Center
Tue 06:56:03 PM 43.8367 -93.9872 85° East 461 531 21,700 -2,928 Descending Minneapolis Center
Tue 06:57:05 PM 43.8450 -93.8200 86° East 447 514 18,600 -3,194 Descending Minneapolis Center
Tue 06:58:07 PM 43.8542 -93.6603 85° East 428 493 15,100 -3,290 Descending Minneapolis Center
Tue 06:59:09 PM 43.8536 -93.5119 90° East 400 460 11,800 -2,468 Descending Minneapolis Center
Tue 07:00:11 PM 43.8678 -93.3456 83° East 364 419 10,000 -968 Descending Minneapolis Center
Tue 07:01:13 PM 43.8753 -93.2144 85° East 351 404 9,800 -194 Descending Minneapolis Center
Tue 07:03:00 PM 43.8834 -92.9489 90° East  Level FlightAware Approximate
Tue 07:10:00 PM 43.9000 -92.5000 90° East  Level FlightAware Approximate
Tue 07:11:00 PM 43.9083 -92.5000 90° East  Level Estimated
Tue 07:12:00 PM 43.9083 -92.5000 90° East  Level Estimated
Tue 07:13:00 PM 43.9083 -92.5000 90° East  Level Estimated
Tue 07:14:00 PM 43.9083 -92.5000 90° East  Level Estimated
Tue 07:15:00 PM 43.9083 -92.5000 90° East  Level Estimated
Tue 07:16:00 PM 43.9083 -92.5000 90° East  Level Estimated
Tue 07:17:00 PM 43.9083 -92.5000 90° East  Level Estimated
Tue 07:18:00 PM 43.9083 -92.5000 90° East  Level Estimated

Login

Don't have an account? Register now (free) for customized features, flight alerts, and more!